Terminal Aerodrome Forecast
Issued by NWS Duluth, MN

Home | Current Version | Previous Version | Text Only | Print | Product List | Glossary On
Versions: 1 2 3 4 5 6 7 8 9 10 11 12 13 14
000
FTUS43 KDLH 230525
TAFDLH
TAF
KDLH 230525Z 2306/2406 VRB03KT P6SM FEW200
     FM231100 00000KT 5SM BR SCT250
     FM231300 16006KT P6SM FEW250
     FM240200 11005KT P6SM FEW200
     FM240500 VRB03KT P6SM SCT140=

USA.gov is the U.S. government's official web portal to all federal, state and local government web resources and services.